KCCR/CCR METAR and TAF weather

Enter ICAO airport designator
Station Type Date Time Source
KCCR METAR 2021/01/22 06:53 UTC NOAA

KCCR 220653Z AUTO 17008KT 10SM FEW100 09/05 A2998 RMK AO2 SLP138 T00940050


Station Type Date Time Source
KCCR Decoded METAR 2021/01/22 06:53 UTC NOAA

CONCORD BUCHANAN FIELD, CA, United States (KCCR) 38-00N 122-03W 11M
Jan 22, 2021 - 01:53 AM EST / 2021.01.22 0653 UTC
Wind: from the S (170 degrees) at 9 MPH (8 KT):0
Visibility: 10 mile(s):0
Sky conditions: mostly clear
Temperature: 48.9 F (9.4 C)
Dew Point: 41.0 F (5.0 C)
Relative Humidity: 73%
Pressure (altimeter): 29.98 in. Hg (1015 hPa)
ob: KCCR 220653Z AUTO 17008KT 10SM FEW100 09/05 A2998 RMK AO2 SLP138 T00940050
cycle: 7

Station Type Date Time Source
KCCR TAF 2016/02/08 18:39 UTC NOAA

TAF KCCR 081738Z 0818/0918 07006KT P6SM SKC
FM082000 06010KT P6SM SKC
FM090000 06005KT P6SM SKC
FM090600 VRB03KT P6SM SKC

Example: see airport list